createdAt,value
2019-06-01T00:00:10.828Z,24.7
2019-06-01T00:01:01.434Z,26.8
2019-06-01T00:02:02.132Z,23.9
2019-06-01T00:03:02.824Z,21.0
2019-06-01T00:04:03.515Z,22.5
2019-06-01T00:05:04.209Z,26.5
2019-06-01T00:06:04.899Z,27.2
2019-06-01T00:07:06.020Z,26.0
2019-06-01T00:08:06.736Z,27.4
2019-06-01T00:09:07.427Z,30.3
2019-06-01T00:10:08.123Z,25.3
2019-06-01T00:11:08.790Z,30.1
2019-06-01T00:12:09.615Z,29.4
2019-06-01T00:13:10.365Z,29.8
2019-06-01T00:15:12.748Z,35.1
2019-06-01T00:16:14.404Z,31.9
2019-06-01T00:17:15.587Z,29.7
2019-06-01T00:18:16.289Z,31.9
2019-06-01T00:19:17.050Z,33.1
2019-06-01T00:20:17.736Z,29.5
2019-06-01T00:21:18.439Z,32.7
2019-06-01T00:22:19.137Z,31.6
2019-06-01T00:23:20.433Z,35.5
2019-06-01T00:24:22.442Z,33.5
2019-06-01T00:25:23.094Z,35.9
2019-06-01T00:26:23.854Z,35.0
2019-06-01T00:27:24.511Z,38.0
2019-06-01T00:28:25.210Z,115.0
2019-06-01T00:29:25.901Z,89.1
2019-06-01T00:30:27.600Z,41.2
2019-06-01T00:31:27.275Z,38.6
2019-06-01T00:32:27.974Z,32.0
2019-06-01T00:33:28.666Z,35.5
2019-06-01T00:34:29.379Z,40.5
2019-06-01T00:35:30.055Z,41.6
2019-06-01T00:36:30.850Z,38.1
2019-06-01T00:37:31.540Z,36.1
2019-06-01T00:38:32.261Z,40.5
2019-06-01T00:39:32.933Z,40.5
2019-06-01T00:40:33.639Z,43.0
2019-06-01T00:41:34.385Z,39.5
2019-06-01T00:42:35.024Z,41.2
2019-06-01T00:43:35.715Z,44.3
2019-06-01T00:44:36.411Z,43.6
2019-06-01T00:45:37.103Z,41.9
2019-06-01T00:46:37.796Z,37.9
2019-06-01T00:47:38.499Z,41.1
2019-06-01T00:48:39.191Z,40.8
2019-06-01T00:49:39.885Z,46.5
2019-06-01T00:50:40.588Z,41.3
2019-06-01T00:51:41.277Z,40.7
2019-06-01T00:52:42.957Z,47.1
2019-06-01T00:53:43.309Z,46.3
2019-06-01T00:54:43.351Z,40.3
2019-06-01T00:55:45.863Z,44.5
2019-06-01T00:56:45.595Z,43.0
2019-06-01T00:57:45.750Z,37.0
2019-06-01T00:58:46.124Z,39.0
2019-06-01T00:59:47.990Z,38.4
2019-06-01T01:00:49.022Z,41.3
2019-06-01T01:01:48.192Z,39.2
2019-06-01T01:02:50.138Z,40.9
2019-06-01T01:03:50.217Z,40.1
2019-06-01T01:04:50.391Z,39.3
2019-06-01T01:05:50.955Z,41.8
2019-06-01T01:06:52.826Z,37.8
2019-06-01T01:07:53.540Z,40.2
2019-06-01T01:08:53.073Z,48.7
2019-06-01T01:09:54.931Z,40.1
2019-06-01T01:10:55.086Z,41.6
2019-06-01T01:11:55.330Z,40.0
2019-06-01T01:12:55.795Z,40.0
2019-06-01T01:13:56.490Z,44.6
2019-06-01T01:14:57.188Z,45.2
2019-06-01T01:15:57.889Z,43.7
2019-06-01T01:16:58.587Z,43.7
2019-06-01T01:17:59.272Z,44.6
2019-06-01T01:18:59.967Z,46.8
2019-06-01T01:20:00.663Z,45.7
2019-06-01T01:21:01.355Z,49.0
2019-06-01T01:22:02.044Z,45.6
2019-06-01T01:23:02.739Z,52.9
2019-06-01T01:24:03.425Z,44.7
2019-06-01T01:25:04.131Z,53.5
2019-06-01T01:26:04.860Z,45.1
2019-06-01T01:27:05.523Z,47.3
2019-06-01T01:28:06.214Z,46.4
2019-06-01T01:29:06.910Z,52.1
2019-06-01T01:30:07.599Z,49.9
2019-06-01T01:31:13.798Z,50.1
2019-06-01T01:32:09.003Z,48.9
2019-06-01T01:33:09.731Z,52.4
2019-06-01T01:34:10.383Z,56.2
2019-06-01T01:35:11.074Z,53.1
2019-06-01T01:36:11.793Z,52.8
2019-06-01T01:37:12.494Z,64.9
2019-06-01T01:38:13.183Z,57.2
2019-06-01T01:39:13.875Z,59.1
2019-06-01T01:40:14.563Z,55.0
2019-06-01T01:41:15.260Z,62.0
2019-06-01T01:42:15.963Z,63.0
2019-06-01T01:43:16.951Z,62.7
2019-06-01T01:44:17.652Z,57.7
2019-06-01T01:45:18.354Z,65.3
2019-06-01T01:46:19.041Z,58.8
2019-06-01T01:47:19.727Z,61.2
2019-06-01T01:48:20.420Z,57.2
2019-06-01T01:49:21.118Z,58.9
2019-06-01T01:50:21.810Z,56.3
2019-06-01T01:51:22.506Z,58.9
2019-06-01T01:52:23.198Z,57.7
2019-06-01T01:53:23.884Z,57.6
2019-06-01T01:54:24.577Z,62.4
2019-06-01T01:55:25.271Z,61.0
2019-06-01T01:56:25.963Z,62.6
2019-06-01T01:57:26.651Z,65.2
2019-06-01T01:58:27.335Z,58.9
2019-06-01T01:59:28.026Z,59.7
2019-06-01T02:00:28.722Z,66.3
2019-06-01T02:01:29.416Z,64.2
2019-06-01T02:02:30.095Z,61.9
2019-06-01T02:03:30.798Z,65.4
2019-06-01T02:04:31.486Z,67.4
2019-06-01T02:05:32.248Z,64.1
2019-06-01T02:06:32.939Z,63.0
2019-06-01T02:07:33.632Z,66.0
2019-06-01T02:08:34.524Z,76.2
2019-06-01T02:09:35.219Z,78.0
2019-06-01T02:10:35.947Z,77.9
2019-06-01T02:11:36.598Z,83.4
2019-06-01T02:12:37.291Z,82.6
2019-06-01T02:13:37.975Z,82.1
2019-06-01T02:14:38.664Z,71.7
2019-06-01T02:15:39.363Z,84.3
2019-06-01T02:16:40.068Z,86.2
2019-06-01T02:17:40.758Z,83.1
2019-06-01T02:18:41.455Z,84.0
2019-06-01T02:19:42.162Z,86.1
2019-06-01T02:20:42.835Z,85.8
2019-06-01T02:21:43.528Z,83.4
2019-06-01T02:22:44.239Z,82.9
2019-06-01T02:23:44.941Z,84.9
2019-06-01T02:24:45.633Z,83.5
2019-06-01T02:25:46.332Z,86.6
2019-06-01T02:26:47.028Z,81.5
2019-06-01T02:27:47.749Z,82.8
2019-06-01T02:28:48.441Z,94.2
2019-06-01T02:29:49.137Z,99.4
2019-06-01T02:30:49.818Z,78.9
2019-06-01T02:31:50.515Z,84.3
2019-06-01T02:32:51.209Z,83.0
2019-06-01T02:33:51.892Z,93.5
2019-06-01T02:34:54.140Z,81.9
2019-06-01T02:35:54.413Z,85.3
2019-06-01T02:36:54.318Z,92.4
2019-06-01T02:37:56.297Z,80.4
2019-06-01T02:38:56.525Z,80.8
2019-06-01T02:39:56.752Z,87.3
2019-06-01T02:40:57.416Z,93.0
2019-06-01T02:41:59.035Z,88.2
2019-06-01T02:42:59.269Z,87.7
2019-06-01T02:43:59.112Z,86.3
2019-06-01T02:45:01.147Z,84.1
2019-06-01T02:46:00.559Z,85.3
2019-06-01T02:47:01.561Z,87.5
2019-06-01T02:48:01.813Z,91.6
2019-06-01T02:49:04.071Z,90.5
2019-06-01T02:50:04.518Z,91.4
2019-06-01T02:51:04.074Z,89.2
2019-06-01T02:52:05.442Z,98.2
2019-06-01T02:53:05.802Z,98.6
2019-06-01T02:54:06.272Z,99.8
2019-06-01T02:55:06.521Z,90.7
2019-06-01T02:56:07.064Z,95.3
2019-06-01T02:57:07.751Z,102.9
2019-06-01T02:58:08.457Z,106.4
2019-06-01T02:59:09.133Z,94.2
2019-06-01T03:00:09.840Z,90.3
2019-06-01T03:01:10.532Z,97.2
2019-06-01T03:02:14.621Z,93.4
2019-06-01T03:03:11.922Z,104.0
2019-06-01T03:04:12.609Z,102.3
2019-06-01T03:05:13.296Z,99.5
2019-06-01T03:06:13.990Z,94.4
2019-06-01T03:07:14.686Z,102.7
2019-06-01T03:08:15.381Z,107.4
2019-06-01T03:09:16.077Z,109.4
2019-06-01T03:10:16.768Z,110.3
2019-06-01T03:11:17.478Z,107.8
2019-06-01T03:12:18.158Z,111.8
2019-06-01T03:13:18.855Z,108.6
2019-06-01T03:14:19.546Z,98.6
2019-06-01T03:15:20.246Z,103.7
2019-06-01T03:16:20.946Z,101.7
2019-06-01T03:17:21.654Z,106.3
2019-06-01T03:18:22.344Z,103.9
2019-06-01T03:19:23.040Z,109.3
2019-06-01T03:20:23.733Z,101.5
2019-06-01T03:21:24.423Z,103.1
2019-06-01T03:22:25.120Z,99.0
2019-06-01T03:23:25.807Z,102.7
2019-06-01T03:24:26.507Z,105.0
2019-06-01T03:25:27.199Z,102.9
2019-06-01T03:26:27.909Z,103.3
2019-06-01T03:27:28.598Z,103.9
2019-06-01T03:28:29.284Z,105.2
2019-06-01T03:29:29.985Z,101.7
2019-06-01T03:30:30.688Z,98.7
2019-06-01T03:31:31.374Z,104.0
2019-06-01T03:32:36.554Z,100.5
2019-06-01T03:33:32.765Z,104.5
2019-06-01T03:34:33.483Z,106.9
2019-06-01T03:35:34.184Z,101.8
2019-06-01T03:36:34.873Z,103.6
2019-06-01T03:37:35.553Z,105.0
2019-06-01T03:38:36.257Z,98.5
2019-06-01T03:39:36.952Z,98.7
2019-06-01T03:40:37.642Z,100.5
2019-06-01T03:41:38.337Z,105.5
2019-06-01T03:42:39.029Z,96.5
2019-06-01T03:43:39.724Z,95.6
2019-06-01T03:44:40.424Z,96.1
2019-06-01T03:45:41.120Z,93.6
2019-06-01T03:46:41.821Z,81.9
2019-06-01T03:47:42.507Z,86.6
2019-06-01T03:48:43.227Z,86.7
2019-06-01T03:49:43.900Z,85.8
2019-06-01T03:50:44.605Z,81.4
2019-06-01T03:51:45.317Z,79.1
2019-06-01T03:52:46.004Z,85.4
2019-06-01T03:53:46.697Z,86.3
2019-06-01T03:54:48.700Z,78.8
2019-06-01T03:55:48.083Z,79.9
2019-06-01T03:56:48.782Z,73.4
2019-06-01T03:57:49.474Z,73.2
2019-06-01T03:58:50.175Z,80.9
2019-06-01T03:59:50.868Z,71.0
2019-06-01T04:00:51.566Z,78.9
2019-06-01T04:01:52.257Z,72.8
2019-06-01T04:02:52.953Z,68.8
2019-06-01T04:03:53.657Z,79.1
2019-06-01T04:04:54.355Z,67.2
2019-06-01T04:05:55.050Z,68.1
2019-06-01T04:06:55.760Z,64.1
2019-06-01T04:07:56.450Z,70.5
2019-06-01T04:08:57.147Z,65.8
2019-06-01T04:09:57.859Z,59.4
2019-06-01T04:10:58.554Z,61.8
2019-06-01T04:11:59.246Z,73.2
2019-06-01T04:12:59.947Z,59.5
2019-06-01T04:14:01.553Z,60.5
2019-06-01T04:15:08.402Z,53.1
2019-06-01T04:16:02.048Z,59.4
2019-06-01T04:17:04.035Z,63.4
2019-06-01T04:18:03.887Z,55.8
2019-06-01T04:19:04.124Z,57.1
2019-06-01T04:20:05.918Z,59.5
2019-06-01T04:21:05.998Z,54.8
2019-06-01T04:22:06.209Z,53.4
2019-06-01T04:23:08.014Z,52.9
2019-06-01T04:24:08.035Z,50.9
2019-06-01T04:25:08.391Z,49.4
2019-06-01T04:26:10.167Z,51.1
2019-06-01T04:27:10.227Z,50.4
2019-06-01T04:28:10.376Z,53.7
2019-06-01T04:29:12.414Z,61.4
2019-06-01T04:30:11.767Z,53.2
2019-06-01T04:31:12.839Z,53.2
2019-06-01T04:32:13.160Z,50.5
2019-06-01T04:33:13.850Z,46.3
2019-06-01T04:34:14.543Z,51.9
2019-06-01T04:35:15.304Z,56.0
2019-06-01T04:36:16.002Z,45.9
2019-06-01T04:37:16.703Z,50.6
2019-06-01T04:38:17.395Z,44.4
2019-06-01T04:39:18.091Z,48.7
2019-06-01T04:40:18.787Z,42.6
2019-06-01T04:41:19.487Z,46.3
2019-06-01T04:42:20.186Z,43.4
2019-06-01T04:43:20.909Z,40.7
2019-06-01T04:44:21.586Z,39.9
2019-06-01T04:45:22.273Z,40.4
2019-06-01T04:46:22.969Z,37.4
2019-06-01T04:47:23.674Z,35.6
2019-06-01T04:48:24.367Z,32.7
2019-06-01T04:49:25.063Z,38.2
2019-06-01T04:50:25.763Z,31.3
2019-06-01T04:51:26.463Z,32.8
2019-06-01T04:52:27.155Z,32.0
2019-06-01T04:53:27.857Z,30.7
2019-06-01T04:54:28.561Z,34.6
2019-06-01T04:55:29.318Z,28.0
2019-06-01T04:56:29.947Z,27.5
2019-06-01T04:57:30.644Z,326.2
2019-06-01T04:58:31.350Z,65.5
2019-06-01T04:59:32.045Z,33.2
2019-06-01T05:00:32.750Z,26.0
2019-06-01T05:01:33.442Z,27.1
2019-06-01T05:02:34.143Z,27.6
2019-06-01T05:03:34.812Z,23.1
2019-06-01T05:04:35.506Z,21.7
2019-06-01T05:05:36.209Z,19.7
2019-06-01T05:06:36.892Z,21.9
2019-06-01T05:07:37.588Z,21.2
2019-06-01T05:08:38.283Z,21.0
2019-06-01T05:09:38.961Z,18.8
2019-06-01T05:10:39.660Z,22.3
2019-06-01T05:11:40.356Z,18.6
2019-06-01T05:12:41.063Z,19.4
2019-06-01T05:13:42.098Z,18.6
2019-06-01T05:14:42.706Z,19.0
2019-06-01T05:15:43.411Z,18.9
2019-06-01T05:16:44.138Z,18.3
2019-06-01T05:17:44.844Z,18.9
2019-06-01T05:18:45.547Z,17.6
2019-06-01T05:19:46.262Z,18.6
2019-06-01T05:20:46.955Z,17.0
2019-06-01T05:21:47.660Z,18.4
2019-06-01T05:22:48.353Z,17.5
2019-06-01T05:23:49.053Z,18.8
2019-06-01T05:24:49.754Z,16.6
2019-06-01T05:25:53.169Z,16.1
2019-06-01T05:26:51.210Z,17.3
2019-06-01T05:27:51.858Z,16.9
2019-06-01T05:28:52.570Z,17.1
2019-06-01T05:29:53.239Z,17.9
2019-06-01T05:30:53.940Z,22.6
2019-06-01T05:31:54.647Z,16.7
2019-06-01T05:32:55.341Z,16.3
2019-06-01T05:33:56.038Z,16.0
2019-06-01T05:34:56.740Z,15.6
2019-06-01T05:35:57.446Z,17.8
2019-06-01T05:36:58.140Z,16.6
2019-06-01T05:37:58.841Z,50.4
2019-06-01T05:38:59.551Z,16.5
2019-06-01T05:40:00.250Z,16.1
2019-06-01T05:41:00.944Z,16.4
2019-06-01T05:42:01.644Z,17.5
2019-06-01T05:43:02.346Z,74.5
2019-06-01T05:44:03.040Z,20.9
2019-06-01T05:45:03.739Z,16.3
2019-06-01T05:46:04.449Z,16.1
2019-06-01T05:47:05.143Z,16.1
2019-06-01T05:48:05.846Z,15.9
2019-06-01T05:49:06.565Z,16.1
2019-06-01T05:50:07.255Z,14.2
2019-06-01T05:51:07.963Z,14.9
2019-06-01T05:52:08.661Z,16.5
2019-06-01T05:53:10.364Z,16.0
2019-06-01T05:54:10.469Z,16.0
2019-06-01T05:55:10.760Z,15.0
2019-06-01T05:56:12.602Z,14.1
2019-06-01T05:57:12.645Z,14.7
2019-06-01T05:58:13.042Z,14.3
2019-06-01T05:59:13.922Z,16.3
2019-06-01T06:00:15.069Z,13.3
2019-06-01T06:01:16.346Z,14.6
2019-06-01T06:02:15.656Z,13.8
2019-06-01T06:03:21.750Z,13.7
2019-06-01T06:04:17.514Z,14.1
2019-06-01T06:05:18.763Z,14.3
2019-06-01T06:06:18.454Z,14.2
2019-06-01T06:07:19.163Z,13.6
2019-06-01T06:08:20.121Z,13.5
2019-06-01T06:09:20.550Z,13.0
2019-06-01T06:10:22.176Z,18.8
2019-06-01T06:11:21.947Z,13.5
2019-06-01T06:12:22.661Z,14.1
2019-06-01T06:13:23.355Z,13.6
2019-06-01T06:14:24.048Z,13.0
2019-06-01T06:15:24.754Z,12.6
2019-06-01T06:16:25.466Z,14.1
2019-06-01T06:17:26.171Z,13.3
2019-06-01T06:18:26.861Z,12.3
2019-06-01T06:19:27.571Z,13.2
2019-06-01T06:20:28.261Z,13.3
2019-06-01T06:21:28.963Z,12.5
2019-06-01T06:22:29.679Z,13.0
2019-06-01T06:23:30.375Z,12.3
2019-06-01T06:24:31.076Z,13.3
2019-06-01T06:25:33.435Z,12.4
2019-06-01T06:26:32.481Z,11.8
2019-06-01T06:27:33.193Z,13.4
2019-06-01T06:28:33.889Z,12.2
2019-06-01T06:29:34.586Z,10.4
2019-06-01T06:30:35.285Z,11.3
2019-06-01T06:31:36.282Z,12.2
2019-06-01T06:32:36.990Z,11.1
2019-06-01T06:33:37.701Z,10.0
2019-06-01T06:34:38.389Z,10.9
2019-06-01T06:35:39.093Z,15.0
2019-06-01T06:36:39.796Z,10.3
2019-06-01T06:37:42.315Z,10.1
2019-06-01T06:38:41.185Z,10.5
2019-06-01T06:39:41.887Z,12.3
2019-06-01T06:40:42.603Z,11.0
2019-06-01T06:41:43.288Z,9.3
2019-06-01T06:42:43.994Z,9.2
2019-06-01T06:43:44.691Z,9.8
2019-06-01T06:44:45.384Z,10.9
2019-06-01T06:45:46.089Z,9.4
2019-06-01T06:46:46.797Z,11.4
2019-06-01T06:47:47.501Z,9.8
2019-06-01T06:48:48.199Z,10.0
2019-06-01T06:49:48.895Z,9.6
2019-06-01T06:50:49.592Z,12.7
2019-06-01T06:51:50.296Z,10.2
2019-06-01T06:52:50.994Z,11.3
2019-06-01T06:53:51.695Z,9.6
2019-06-01T06:54:52.393Z,9.2
2019-06-01T06:55:53.100Z,10.0
2019-06-01T06:56:53.804Z,12.8
2019-06-01T06:57:54.512Z,10.1
2019-06-01T06:58:55.193Z,8.7
2019-06-01T06:59:55.896Z,8.8
2019-06-01T07:00:56.609Z,8.6
2019-06-01T07:01:57.341Z,9.2
2019-06-01T07:02:57.998Z,8.4
2019-06-01T07:04:11.635Z,11.7
2019-06-01T07:04:59.400Z,9.4
2019-06-01T07:06:00.096Z,9.9
2019-06-01T07:07:00.802Z,8.7
2019-06-01T07:08:01.501Z,9.1
2019-06-01T07:09:02.209Z,11.0
2019-06-01T07:10:02.929Z,9.4
2019-06-01T07:11:03.625Z,12.3
2019-06-01T07:12:04.338Z,9.2
2019-06-01T07:13:05.040Z,11.4
2019-06-01T07:14:05.715Z,8.6
2019-06-01T07:15:06.430Z,9.1
2019-06-01T07:16:07.153Z,9.1
2019-06-01T07:17:07.837Z,9.0
2019-06-01T07:18:08.537Z,9.4
2019-06-01T07:19:09.231Z,8.2
2019-06-01T07:20:09.928Z,9.3
2019-06-01T07:21:10.636Z,13.5
2019-06-01T07:22:11.320Z,9.0
2019-06-01T07:23:12.037Z,8.9
2019-06-01T07:24:12.753Z,8.1
2019-06-01T07:25:13.431Z,11.5
2019-06-01T07:26:14.137Z,8.6
2019-06-01T07:27:14.825Z,8.6
2019-06-01T07:28:15.531Z,8.8
2019-06-01T07:29:16.268Z,9.0
2019-06-01T07:30:16.979Z,9.4
2019-06-01T07:31:17.656Z,8.3
2019-06-01T07:32:18.357Z,7.6
2019-06-01T07:33:20.366Z,7.3
2019-06-01T07:34:30.933Z,8.0
2019-06-01T07:35:20.574Z,7.8
2019-06-01T07:36:22.176Z,8.1
2019-06-01T07:37:22.566Z,7.3
2019-06-01T07:38:22.562Z,9.3
2019-06-01T07:39:24.742Z,7.6
2019-06-01T07:40:24.776Z,8.4
2019-06-01T07:41:24.729Z,8.8
2019-06-01T07:42:26.625Z,7.7
2019-06-01T07:43:26.840Z,7.8
2019-06-01T07:44:26.978Z,6.9
2019-06-01T07:45:27.431Z,8.5
2019-06-01T07:46:28.984Z,9.5
2019-06-01T07:47:29.182Z,7.1
2019-06-01T07:48:29.545Z,9.4
2019-06-01T07:49:31.188Z,6.2
2019-06-01T07:50:32.201Z,5.4
2019-06-01T07:51:31.745Z,5.8
2019-06-01T07:52:32.458Z,5.7
2019-06-01T07:53:33.043Z,5.6
2019-06-01T07:54:33.745Z,5.7
2019-06-01T07:55:34.461Z,6.2
2019-06-01T07:56:35.156Z,5.2
2019-06-01T07:57:35.861Z,5.6
2019-06-01T07:58:36.560Z,7.3
2019-06-01T07:59:37.261Z,4.5
2019-06-01T08:00:37.969Z,5.1
2019-06-01T08:01:38.670Z,5.0
2019-06-01T08:02:39.369Z,5.5
2019-06-01T08:03:40.079Z,4.8
2019-06-01T08:04:53.152Z,5.0
2019-06-01T08:05:41.515Z,6.9
2019-06-01T08:06:46.306Z,4.8
2019-06-01T08:07:42.922Z,5.1
2019-06-01T08:08:43.628Z,4.8
2019-06-01T08:09:44.328Z,6.0
2019-06-01T08:10:45.025Z,4.3
2019-06-01T08:11:45.731Z,5.1
2019-06-01T08:12:46.432Z,4.7
2019-06-01T08:13:47.138Z,5.3
2019-06-01T08:14:47.839Z,4.8
2019-06-01T08:15:48.552Z,4.6
2019-06-01T08:16:49.269Z,4.0
2019-06-01T08:17:49.962Z,6.8
2019-06-01T08:18:53.042Z,6.1
2019-06-01T08:19:52.031Z,7.1
2019-06-01T08:20:52.074Z,4.1
2019-06-01T08:21:52.814Z,4.0
2019-06-01T08:22:53.480Z,4.7
2019-06-01T08:23:54.185Z,5.5
2019-06-01T08:24:54.889Z,4.1
2019-06-01T08:25:55.590Z,4.0
2019-06-01T08:26:56.294Z,4.3
2019-06-01T08:27:56.996Z,5.3
2019-06-01T08:28:57.707Z,5.4
2019-06-01T08:29:58.442Z,4.4
2019-06-01T08:30:59.141Z,4.8
2019-06-01T08:31:59.844Z,4.7
2019-06-01T08:33:00.611Z,4.2
2019-06-01T08:34:01.263Z,4.4
2019-06-01T08:35:08.445Z,4.8
2019-06-01T08:36:02.665Z,3.8
2019-06-01T08:37:03.438Z,5.0
2019-06-01T08:38:04.077Z,5.0
2019-06-01T08:39:04.807Z,4.8
2019-06-01T08:40:05.489Z,4.4
2019-06-01T08:41:06.206Z,3.9
2019-06-01T08:42:06.909Z,3.8
2019-06-01T08:43:07.597Z,3.7
2019-06-01T08:44:08.243Z,4.5
2019-06-01T08:45:08.945Z,4.1
2019-06-01T08:46:09.667Z,4.4
2019-06-01T08:47:10.371Z,4.3
2019-06-01T08:48:11.091Z,5.3
2019-06-01T08:49:11.786Z,4.6
2019-06-01T08:50:12.503Z,3.6
2019-06-01T08:51:13.199Z,5.6
2019-06-01T08:52:13.906Z,3.7
2019-06-01T08:53:14.604Z,4.3
2019-06-01T08:54:15.316Z,4.3
2019-06-01T08:55:16.005Z,4.9
2019-06-01T08:56:16.708Z,4.4
2019-06-01T08:57:17.413Z,4.4
2019-06-01T08:58:18.118Z,4.9
2019-06-01T08:59:18.827Z,4.3
2019-06-01T09:00:19.521Z,5.2
2019-06-01T09:01:20.230Z,4.5
2019-06-01T09:02:20.935Z,4.1
2019-06-01T09:03:21.638Z,5.0
2019-06-01T09:04:22.352Z,3.7
2019-06-01T09:05:25.848Z,6.3
2019-06-01T09:06:24.815Z,3.9
2019-06-01T09:07:24.843Z,4.8
2019-06-01T09:08:25.909Z,4.4
2019-06-01T09:09:26.880Z,4.5
2019-06-01T09:10:27.425Z,8.4
2019-06-01T09:11:27.266Z,5.6
2019-06-01T09:12:29.155Z,5.6
2019-06-01T09:13:29.138Z,4.7
2019-06-01T09:14:29.368Z,4.5
2019-06-01T09:15:31.355Z,4.0
2019-06-01T09:16:31.603Z,6.4
2019-06-01T09:17:31.652Z,4.2
2019-06-01T09:18:33.558Z,5.0
2019-06-01T09:19:33.596Z,5.0
2019-06-01T09:20:37.117Z,9.8
2019-06-01T09:21:34.273Z,4.7
2019-06-01T09:22:35.726Z,4.8
2019-06-01T09:23:37.076Z,5.4
2019-06-01T09:24:36.391Z,5.3
2019-06-01T09:25:37.088Z,4.1
2019-06-01T09:26:37.787Z,4.7
2019-06-01T09:27:38.493Z,6.5
2019-06-01T09:28:39.193Z,9.7
2019-06-01T09:29:39.902Z,6.4
2019-06-01T09:30:40.599Z,4.4
2019-06-01T09:31:41.307Z,4.4
2019-06-01T09:32:42.015Z,4.7
2019-06-01T09:33:42.708Z,4.9
2019-06-01T09:34:43.416Z,5.0
2019-06-01T09:35:54.281Z,5.6
2019-06-01T09:36:44.824Z,5.3
2019-06-01T09:37:45.939Z,4.9
2019-06-01T09:38:46.226Z,5.2
2019-06-01T09:39:46.930Z,6.2
2019-06-01T09:40:47.639Z,5.2
2019-06-01T09:41:48.346Z,6.2
2019-06-01T09:42:49.056Z,4.5
2019-06-01T09:43:49.750Z,5.1
2019-06-01T09:44:50.455Z,4.3
2019-06-01T09:45:53.290Z,4.1
2019-06-01T09:46:51.879Z,4.8
2019-06-01T09:47:52.586Z,4.1
2019-06-01T09:48:53.285Z,4.5
2019-06-01T09:49:53.995Z,5.3
2019-06-01T09:50:54.703Z,4.6
2019-06-01T09:51:55.402Z,5.6
2019-06-01T09:52:56.105Z,4.5
2019-06-01T09:53:56.810Z,5.0
2019-06-01T09:54:57.515Z,6.5
2019-06-01T09:55:58.227Z,4.5
2019-06-01T09:56:58.895Z,5.9
2019-06-01T09:57:59.603Z,4.4
2019-06-01T09:59:00.313Z,6.9
2019-06-01T10:00:01.120Z,5.1
2019-06-01T10:01:01.719Z,5.1
2019-06-01T10:02:02.419Z,5.4
2019-06-01T10:03:03.125Z,4.6
2019-06-01T10:04:03.849Z,4.2
2019-06-01T10:05:04.539Z,4.5
2019-06-01T10:06:05.255Z,4.5
2019-06-01T10:07:05.951Z,6.8
2019-06-01T10:08:06.658Z,3.6
2019-06-01T10:09:07.360Z,4.2
2019-06-01T10:10:08.064Z,3.8
2019-06-01T10:11:08.772Z,3.0
2019-06-01T10:12:09.476Z,3.7
2019-06-01T10:13:10.182Z,3.9
2019-06-01T10:14:10.898Z,3.1
2019-06-01T10:15:11.591Z,3.5
2019-06-01T10:16:12.304Z,4.1
2019-06-01T10:17:13.018Z,3.8
2019-06-01T10:18:13.709Z,3.9
2019-06-01T10:19:14.407Z,4.0
2019-06-01T10:20:15.173Z,5.9
2019-06-01T10:21:15.813Z,3.8
2019-06-01T10:22:16.523Z,3.8
2019-06-01T10:23:17.221Z,4.3
2019-06-01T10:24:17.930Z,4.5
2019-06-01T10:25:18.631Z,4.4
2019-06-01T10:26:19.336Z,6.4
2019-06-01T10:27:20.041Z,3.3
2019-06-01T10:28:20.747Z,3.1
2019-06-01T10:29:21.462Z,3.1
2019-06-01T10:30:22.167Z,5.1
2019-06-01T10:31:22.862Z,2.5
2019-06-01T10:32:23.569Z,2.9
2019-06-01T10:33:24.280Z,3.1
2019-06-01T10:34:24.987Z,2.9
2019-06-01T10:35:25.691Z,5.6
2019-06-01T10:36:26.389Z,6.2
2019-06-01T10:37:27.097Z,2.9
2019-06-01T10:38:27.802Z,2.7
2019-06-01T10:39:28.506Z,4.2
2019-06-01T10:40:29.222Z,2.1
2019-06-01T10:41:31.154Z,4.1
2019-06-01T10:42:32.701Z,3.1
2019-06-01T10:43:31.496Z,3.8
2019-06-01T10:44:36.724Z,2.9
2019-06-01T10:45:33.540Z,2.7
2019-06-01T10:46:33.868Z,3.0
2019-06-01T10:47:34.147Z,2.8
2019-06-01T10:48:36.010Z,3.0
2019-06-01T10:49:35.954Z,6.0
2019-06-01T10:50:36.647Z,2.9
2019-06-01T10:51:38.153Z,3.7
2019-06-01T10:52:38.316Z,6.5
2019-06-01T10:53:38.360Z,3.0
2019-06-01T10:54:40.220Z,2.7
2019-06-01T10:55:40.328Z,2.8
2019-06-01T10:56:40.657Z,4.3
2019-06-01T10:57:42.687Z,3.7
2019-06-01T10:58:56.714Z,2.9
2019-06-01T10:59:42.684Z,3.1
2019-06-01T11:00:49.882Z,3.1
2019-06-01T11:01:43.984Z,3.0
2019-06-01T11:02:44.685Z,2.8
2019-06-01T11:03:45.395Z,2.7
2019-06-01T11:04:46.164Z,3.1
2019-06-01T11:05:46.876Z,2.9
2019-06-01T11:06:48.791Z,2.4
2019-06-01T11:07:48.290Z,4.2
2019-06-01T11:08:49.007Z,3.3
2019-06-01T11:09:49.702Z,2.7
2019-06-01T11:10:50.410Z,3.3
2019-06-01T11:11:51.123Z,3.0
2019-06-01T11:12:51.834Z,5.1
2019-06-01T11:13:52.540Z,2.8
2019-06-01T11:14:53.289Z,2.6
2019-06-01T11:15:53.997Z,3.3
2019-06-01T11:16:56.580Z,2.8
2019-06-01T11:17:55.431Z,6.0
2019-06-01T11:18:56.162Z,3.8
2019-06-01T11:19:56.844Z,2.8
2019-06-01T11:20:57.547Z,2.8
2019-06-01T11:21:58.253Z,3.0
2019-06-01T11:22:58.961Z,3.5
2019-06-01T11:23:59.669Z,3.0
2019-06-01T11:25:00.376Z,5.7
2019-06-01T11:26:01.087Z,5.4
2019-06-01T11:27:01.796Z,2.4
2019-06-01T11:28:02.496Z,3.1
2019-06-01T11:29:03.204Z,2.7
2019-06-01T11:30:03.955Z,3.1
2019-06-01T11:31:04.609Z,2.6
2019-06-01T11:32:05.315Z,2.9
2019-06-01T11:33:06.024Z,3.0
2019-06-01T11:34:06.785Z,3.0
2019-06-01T11:35:07.429Z,7.4
2019-06-01T11:36:08.135Z,2.4
2019-06-01T11:37:08.837Z,2.4
2019-06-01T11:38:09.543Z,2.7
2019-06-01T11:39:10.257Z,2.6
2019-06-01T11:40:10.964Z,2.8
2019-06-01T11:41:11.664Z,2.2
2019-06-01T11:42:12.378Z,4.4
2019-06-01T11:43:13.083Z,2.7
2019-06-01T11:44:13.799Z,3.1
2019-06-01T11:45:14.499Z,2.3
2019-06-01T11:46:15.216Z,2.2
2019-06-01T11:47:15.935Z,2.3
2019-06-01T11:48:16.635Z,2.6
2019-06-01T11:49:20.672Z,4.8
2019-06-01T11:50:18.033Z,2.2
2019-06-01T11:51:18.741Z,2.4
2019-06-01T11:52:19.453Z,2.8
2019-06-01T11:53:20.157Z,3.8
2019-06-01T11:54:20.875Z,2.8
2019-06-01T11:55:21.580Z,2.6
2019-06-01T11:56:22.282Z,3.6
2019-06-01T11:57:22.991Z,2.8
2019-06-01T11:58:23.700Z,2.7
2019-06-01T11:59:24.412Z,4.6
2019-06-01T12:00:25.172Z,2.7
2019-06-01T12:01:25.877Z,3.2
2019-06-01T12:02:26.589Z,2.5
2019-06-01T12:03:27.295Z,2.9
2019-06-01T12:04:28.006Z,2.4
2019-06-01T12:05:28.705Z,3.3
2019-06-01T12:06:29.415Z,3.4
2019-06-01T12:07:30.124Z,5.3
2019-06-01T12:08:34.000Z,2.4
2019-06-01T12:09:31.532Z,3.0
2019-06-01T12:10:32.240Z,2.6
2019-06-01T12:11:32.948Z,3.5
2019-06-01T12:12:33.651Z,2.8
2019-06-01T12:13:34.359Z,2.3
2019-06-01T12:14:36.214Z,3.0
2019-06-01T12:15:36.289Z,2.4
2019-06-01T12:16:36.478Z,3.1
2019-06-01T12:17:38.591Z,2.5
2019-06-01T12:18:38.472Z,3.8
2019-06-01T12:19:38.615Z,2.3
2019-06-01T12:20:39.280Z,3.3
2019-06-01T12:21:40.929Z,2.7
2019-06-01T12:22:40.871Z,3.6
2019-06-01T12:23:41.568Z,3.6
2019-06-01T12:24:43.051Z,2.7
2019-06-01T12:25:42.837Z,2.3
2019-06-01T12:26:43.573Z,4.8
2019-06-01T12:27:44.247Z,2.4
2019-06-01T12:28:45.810Z,4.4
2019-06-01T12:29:45.914Z,2.2
2019-06-01T12:30:46.367Z,4.1
2019-06-01T12:31:48.187Z,2.2
2019-06-01T12:32:48.877Z,2.2
2019-06-01T12:33:48.810Z,4.1
2019-06-01T12:34:49.194Z,3.3
2019-06-01T12:35:49.913Z,3.3
2019-06-01T12:36:50.609Z,2.7
2019-06-01T12:38:05.481Z,2.2
2019-06-01T12:38:52.984Z,3.9
2019-06-01T12:39:54.394Z,3.0
2019-06-01T12:40:54.394Z,2.1
2019-06-01T12:41:55.101Z,3.8
2019-06-01T12:42:55.807Z,2.5
2019-06-01T12:43:56.523Z,2.8
2019-06-01T12:44:57.229Z,2.5
2019-06-01T12:46:07.366Z,2.6
2019-06-01T12:46:58.638Z,2.2
2019-06-01T12:47:59.348Z,2.4
2019-06-01T12:49:00.060Z,3.3
2019-06-01T12:50:00.761Z,2.0
2019-06-01T12:51:01.467Z,2.8
2019-06-01T12:52:02.177Z,2.5
2019-06-01T12:53:02.886Z,2.4
2019-06-01T12:54:03.593Z,2.2
2019-06-01T12:55:04.315Z,2.7
2019-06-01T12:56:05.016Z,3.0
2019-06-01T12:57:05.739Z,2.8
2019-06-01T12:58:06.436Z,3.4
2019-06-01T12:59:07.142Z,3.6
2019-06-01T13:00:07.848Z,3.1
2019-06-01T13:01:08.562Z,3.1
2019-06-01T13:02:09.272Z,2.5
2019-06-01T13:03:10.008Z,2.6
2019-06-01T13:04:10.706Z,3.4
2019-06-01T13:05:11.414Z,2.4
2019-06-01T13:06:12.131Z,2.6
2019-06-01T13:07:12.840Z,4.9
2019-06-01T13:08:13.543Z,4.6
2019-06-01T13:09:14.249Z,4.0
2019-06-01T13:10:14.956Z,3.0
2019-06-01T13:11:15.669Z,2.1
2019-06-01T13:12:16.377Z,2.0
2019-06-01T13:13:17.115Z,1.9
2019-06-01T13:14:17.821Z,1.9
2019-06-01T13:15:18.505Z,3.1
2019-06-01T13:16:19.233Z,2.6
2019-06-01T13:17:19.944Z,2.1
2019-06-01T13:18:20.658Z,5.0
2019-06-01T13:19:21.368Z,1.7
2019-06-01T13:20:22.078Z,3.2
2019-06-01T13:21:22.785Z,2.2
2019-06-01T13:22:23.495Z,2.8
2019-06-01T13:23:24.201Z,2.6
2019-06-01T13:24:24.914Z,3.4
2019-06-01T13:25:25.622Z,1.9
2019-06-01T13:26:26.406Z,2.6
2019-06-01T13:27:27.111Z,2.2
2019-06-01T13:28:37.618Z,1.9
2019-06-01T13:29:28.532Z,3.6
2019-06-01T13:30:29.233Z,1.6
2019-06-01T13:31:29.944Z,1.7
2019-06-01T13:32:30.648Z,2.5
2019-06-01T13:33:31.358Z,2.0
2019-06-01T13:34:34.160Z,1.5
2019-06-01T13:35:32.777Z,1.5
2019-06-01T13:36:33.487Z,1.4
2019-06-01T13:37:34.203Z,3.5
2019-06-01T13:38:34.915Z,1.9
2019-06-01T13:39:35.617Z,1.9
2019-06-01T13:40:36.325Z,1.7